Du har inga inställningar för hoppväder.nu

Hoppväder.nu

Senast uppdaterat 05:06

UTC-tid

2020-11-26 kl. 04:06


Sol och måne

Solen går upp 8:46 och går ner 14:31 (beräknade cirkatider)
Nästa fullmåne blir om 4 dagar (2020-11-30)

METAR

ESNN (Sundsvall)
(16 minuter sedan)
ESNN 260350Z AUTO 25004KT 9999 NCD M00/M00 Q1004=



ESNK (Kramfors)
(16 minuter sedan)
ESNK 260350Z AUTO VRB01KT 9999 NCD 00/M00 Q1003=



ESNO (Örnsköldsvik)
(16 minuter sedan)
ESNO 260350Z AUTO 29014KT 9999 NCD 02/01 Q1000=



ESNY (Söderhamn)
ESNY NIL=



ESNZ (Östersund)
(16 minuter sedan)
ESNZ 260350Z AUTO 30008KT 280V340 9999 FEW025/// BKN080/// 03/M00 Q1004=



TAF

ESNN (Sundsvall)
ESNN



ESNK (Kramfors)
ESNK



ESNO (Örnsköldsvik)
(36 minuter sedan)
ESNO 260330Z 2604/2607 28010KT CAVOK=



ESNY (Söderhamn)
ESNY



ESNZ (Östersund)
ESNZ





Kodnycklar till TAF och METAR






LHP

(Sundsvall är område se42d i Delområde 4)

Prognos är inte uppdaterad






Preliminär prognos